createdAt,value
2023-03-07T00:02:11.753Z,8.97
2023-03-07T00:04:38.391Z,11.82
2023-03-07T00:07:04.888Z,10.43
2023-03-07T00:09:31.485Z,7.10
2023-03-07T00:11:57.883Z,12.20
2023-03-07T00:14:24.340Z,9.63
2023-03-07T00:16:51.771Z,8.52
2023-03-07T00:19:18.849Z,7.07
2023-03-07T00:21:45.754Z,7.00
2023-03-07T00:24:12.328Z,7.88
2023-03-07T00:26:39.784Z,9.70
2023-03-07T00:29:07.983Z,7.55
2023-03-07T00:31:34.524Z,6.82
2023-03-07T00:34:01.370Z,5.45
2023-03-07T00:36:28.323Z,9.02
2023-03-07T00:38:55.393Z,9.47
2023-03-07T00:41:27.029Z,6.95
2023-03-07T00:43:55.197Z,5.78
2023-03-07T00:46:23.351Z,10.73
2023-03-07T00:48:50.139Z,5.75
2023-03-07T00:51:18.398Z,7.20
2023-03-07T00:53:45.243Z,12.10
2023-03-07T00:56:14.839Z,14.93
2023-03-07T00:58:41.752Z,11.73
2023-03-07T01:01:11.198Z,15.23
2023-03-07T01:03:37.826Z,6.13
2023-03-07T01:06:10.314Z,12.27
2023-03-07T01:08:36.842Z,7.20
2023-03-07T01:11:05.346Z,7.00
2023-03-07T01:13:33.978Z,5.90
2023-03-07T01:16:28.497Z,9.53
2023-03-07T01:18:57.366Z,8.85
2023-03-07T01:21:29.730Z,5.53
2023-03-07T01:23:56.809Z,5.82
2023-03-07T01:26:26.080Z,8.77
2023-03-07T01:28:55.260Z,6.87
2023-03-07T01:31:22.234Z,7.78
2023-03-07T01:33:50.448Z,7.65
2023-03-07T01:36:30.057Z,9.63
2023-03-07T01:39:10.637Z,8.43
2023-03-07T01:41:38.058Z,5.43
2023-03-07T01:44:14.393Z,4.93
2023-03-07T01:47:07.050Z,3.35
2023-03-07T01:49:41.005Z,3.90
2023-03-07T01:52:09.065Z,7.90
2023-03-07T01:54:39.689Z,7.47
2023-03-07T01:57:06.427Z,6.55
2023-03-07T01:59:36.714Z,7.50
2023-03-07T02:02:08.006Z,4.88
2023-03-07T02:04:43.042Z,7.78
2023-03-07T02:07:10.894Z,4.37
2023-03-07T02:09:38.801Z,4.60
2023-03-07T02:12:05.637Z,9.18
2023-03-07T02:14:32.309Z,6.97
2023-03-07T02:16:58.782Z,6.20
2023-03-07T02:19:40.685Z,3.90
2023-03-07T02:22:12.600Z,4.65
2023-03-07T02:24:59.035Z,4.40
2023-03-07T02:27:27.474Z,6.90
2023-03-07T02:29:53.945Z,4.35
2023-03-07T02:32:20.821Z,5.13
2023-03-07T02:34:47.723Z,3.92
2023-03-07T02:37:20.612Z,7.20
2023-03-07T02:39:48.343Z,4.47
2023-03-07T02:42:20.168Z,5.32
2023-03-07T02:44:47.665Z,3.60
2023-03-07T02:47:14.269Z,5.82
2023-03-07T02:49:40.844Z,9.02
2023-03-07T02:52:07.306Z,5.05
2023-03-07T02:54:33.782Z,2.67
2023-03-07T02:57:00.256Z,5.10
2023-03-07T02:59:27.916Z,5.00
2023-03-07T03:01:54.626Z,6.07
2023-03-07T03:04:21.184Z,5.13
2023-03-07T03:06:47.720Z,7.43
2023-03-07T03:09:14.280Z,6.67
2023-03-07T03:11:40.779Z,5.10
2023-03-07T03:14:07.515Z,3.92
2023-03-07T03:16:33.998Z,6.10
2023-03-07T03:19:00.559Z,2.63
2023-03-07T03:21:27.169Z,4.80
2023-03-07T03:23:53.641Z,3.60
2023-03-07T03:26:20.108Z,6.25
2023-03-07T03:28:46.611Z,5.15
2023-03-07T03:31:16.616Z,2.97
2023-03-07T03:33:46.996Z,6.20
2023-03-07T03:36:16.495Z,6.15
2023-03-07T03:38:43.548Z,5.32
2023-03-07T03:41:18.057Z,4.35
2023-03-07T03:43:44.682Z,4.40
2023-03-07T03:46:11.408Z,6.10
2023-03-07T03:48:37.935Z,5.57
2023-03-07T03:51:06.031Z,5.05
2023-03-07T03:53:34.702Z,5.53
2023-03-07T03:56:21.499Z,5.63
2023-03-07T03:58:49.856Z,6.70
2023-03-07T04:01:16.550Z,2.53
2023-03-07T04:03:45.724Z,8.25
2023-03-07T04:06:16.039Z,4.90
2023-03-07T04:08:42.864Z,4.88
2023-03-07T04:11:09.391Z,4.30
2023-03-07T04:13:36.978Z,8.68
2023-03-07T04:16:04.476Z,8.60
2023-03-07T04:18:31.319Z,14.95
2023-03-07T04:20:57.961Z,3.28
2023-03-07T04:23:25.352Z,5.70
2023-03-07T04:25:56.786Z,5.93
2023-03-07T04:28:24.950Z,4.65
2023-03-07T04:30:52.601Z,6.63
2023-03-07T04:33:34.782Z,5.40
2023-03-07T04:36:01.450Z,9.32
2023-03-07T04:38:28.049Z,3.88
2023-03-07T04:40:54.638Z,2.58
2023-03-07T04:43:21.832Z,4.10
2023-03-07T04:45:48.434Z,6.23
2023-03-07T04:48:15.003Z,6.20
2023-03-07T04:50:41.562Z,4.10
2023-03-07T04:53:08.092Z,5.03
2023-03-07T04:55:34.624Z,10.02
2023-03-07T04:58:01.187Z,3.87
2023-03-07T05:00:27.850Z,5.78
2023-03-07T05:02:57.670Z,3.35
2023-03-07T05:05:24.463Z,2.25
2023-03-07T05:07:50.982Z,4.45
2023-03-07T05:10:17.625Z,6.33
2023-03-07T05:12:44.052Z,6.85
2023-03-07T05:15:10.688Z,4.18
2023-03-07T05:17:37.357Z,2.67
2023-03-07T05:20:04.889Z,1.95
2023-03-07T05:22:31.442Z,7.20
2023-03-07T05:24:58.578Z,3.80
2023-03-07T05:27:25.041Z,1.52
2023-03-07T05:29:51.646Z,4.30
2023-03-07T05:32:18.160Z,3.45
2023-03-07T05:34:47.161Z,2.33
2023-03-07T05:37:14.326Z,5.00
2023-03-07T05:39:40.803Z,3.53
2023-03-07T05:42:07.518Z,4.00
2023-03-07T05:44:34.301Z,2.30
2023-03-07T05:47:00.870Z,1.00
2023-03-07T05:49:27.359Z,3.33
2023-03-07T05:51:54.035Z,2.60
2023-03-07T05:54:20.651Z,3.88
2023-03-07T05:56:47.127Z,1.15
2023-03-07T05:59:15.601Z,2.33
2023-03-07T06:01:42.789Z,3.65
2023-03-07T06:04:10.057Z,2.40
2023-03-07T06:06:36.750Z,5.30
2023-03-07T06:09:05.695Z,3.30
2023-03-07T06:11:33.173Z,5.07
2023-03-07T06:13:59.746Z,2.13
2023-03-07T06:16:26.515Z,1.45
2023-03-07T06:18:53.127Z,2.10
2023-03-07T06:21:19.602Z,0.63
2023-03-07T06:23:46.569Z,1.07
2023-03-07T06:26:13.235Z,2.92
2023-03-07T06:28:40.319Z,2.47
2023-03-07T06:31:12.422Z,3.03
2023-03-07T06:33:39.297Z,1.65
2023-03-07T06:36:11.644Z,6.03
2023-03-07T06:38:39.311Z,2.90
2023-03-07T06:41:06.593Z,1.83
2023-03-07T06:43:33.724Z,4.85
2023-03-07T06:46:01.107Z,1.98
2023-03-07T06:48:27.695Z,6.83
2023-03-07T06:50:54.174Z,2.47
2023-03-07T06:53:20.829Z,5.53
2023-03-07T06:55:51.676Z,1.98
2023-03-07T06:58:19.098Z,0.70
2023-03-07T07:00:45.929Z,0.93
2023-03-07T07:03:15.578Z,2.45
2023-03-07T07:05:42.086Z,3.00
2023-03-07T07:08:09.249Z,2.75
2023-03-07T07:10:35.808Z,1.67
2023-03-07T07:13:02.769Z,3.27
2023-03-07T07:15:29.254Z,2.25
2023-03-07T07:17:55.827Z,1.58
2023-03-07T07:20:22.354Z,6.10
2023-03-07T07:22:49.113Z,2.67
2023-03-07T07:25:15.804Z,4.20
2023-03-07T07:27:42.367Z,1.42
2023-03-07T07:30:09.460Z,1.50
2023-03-07T07:32:36.002Z,2.47
2023-03-07T07:35:02.859Z,1.55
2023-03-07T07:37:29.407Z,3.20
2023-03-07T07:39:55.958Z,6.57
2023-03-07T07:42:22.419Z,4.00
2023-03-07T07:44:49.022Z,3.95
2023-03-07T07:47:15.571Z,5.32
2023-03-07T07:49:42.130Z,2.60
2023-03-07T07:52:08.610Z,3.17
2023-03-07T07:54:35.109Z,2.85
2023-03-07T07:57:01.631Z,3.17
2023-03-07T07:59:28.143Z,3.33
2023-03-07T08:01:55.874Z,3.03
2023-03-07T08:04:24.132Z,3.10
2023-03-07T08:06:50.651Z,4.05
2023-03-07T08:09:17.315Z,3.92
2023-03-07T08:11:45.135Z,2.05
2023-03-07T08:14:11.699Z,2.07
2023-03-07T08:16:38.345Z,3.90
2023-03-07T08:19:04.918Z,2.35
2023-03-07T08:21:35.923Z,2.88
2023-03-07T08:24:02.534Z,2.42
2023-03-07T08:26:29.187Z,3.60
2023-03-07T08:28:56.251Z,2.50
2023-03-07T08:31:24.880Z,4.95
2023-03-07T08:33:52.586Z,3.65
2023-03-07T08:36:19.820Z,2.22
2023-03-07T08:38:52.970Z,1.93
2023-03-07T08:41:22.178Z,2.83
2023-03-07T08:43:48.996Z,2.90
2023-03-07T08:46:16.115Z,4.40
2023-03-07T08:48:42.969Z,2.85
2023-03-07T08:51:12.931Z,3.13
2023-03-07T08:53:41.296Z,4.10
2023-03-07T08:56:09.050Z,3.00
2023-03-07T08:58:36.054Z,3.05
2023-03-07T09:01:03.823Z,2.58
2023-03-07T09:03:30.330Z,3.63
2023-03-07T09:05:56.900Z,2.30
2023-03-07T09:08:23.437Z,2.95
2023-03-07T09:10:50.312Z,5.07
2023-03-07T09:13:18.584Z,2.83
2023-03-07T09:15:45.777Z,3.23
2023-03-07T09:18:12.900Z,3.13
2023-03-07T09:20:40.203Z,2.65
2023-03-07T09:23:08.585Z,6.07
2023-03-07T09:25:35.126Z,3.53
2023-03-07T09:28:01.632Z,2.70
2023-03-07T09:30:29.003Z,3.35
2023-03-07T09:32:55.774Z,2.95
2023-03-07T09:35:23.050Z,1.85
2023-03-07T09:37:49.748Z,3.88
2023-03-07T09:40:22.028Z,2.27
2023-03-07T09:42:55.515Z,2.58
2023-03-07T09:45:52.278Z,2.38
2023-03-07T09:48:27.934Z,3.95
2023-03-07T09:51:07.553Z,2.58
2023-03-07T09:53:41.518Z,1.97
2023-03-07T09:56:16.837Z,3.13
2023-03-07T09:58:47.360Z,4.03
2023-03-07T10:01:15.846Z,3.72
2023-03-07T10:03:57.628Z,3.03
2023-03-07T10:06:37.723Z,3.67
2023-03-07T10:09:07.541Z,4.88
2023-03-07T10:11:59.261Z,2.35
2023-03-07T10:14:54.511Z,3.30
2023-03-07T10:17:39.410Z,3.92
2023-03-07T10:20:30.986Z,2.60
2023-03-07T10:22:57.425Z,1.85
2023-03-07T10:25:56.220Z,2.10
2023-03-07T10:28:30.012Z,1.48
2023-03-07T10:31:10.788Z,4.28
2023-03-07T10:33:40.336Z,5.70
2023-03-07T10:36:12.590Z,3.47
2023-03-07T10:38:57.744Z,5.68
2023-03-07T10:41:24.278Z,1.98
2023-03-07T10:43:54.043Z,1.90
2023-03-07T10:46:26.341Z,3.60
2023-03-07T10:49:04.983Z,2.80
2023-03-07T10:51:46.414Z,6.40
2023-03-07T10:54:17.726Z,2.83
2023-03-07T10:57:14.837Z,2.50
2023-03-07T10:59:43.769Z,1.13
2023-03-07T11:02:30.991Z,2.05
2023-03-07T11:04:57.926Z,3.17
2023-03-07T11:07:29.787Z,2.97
2023-03-07T11:09:58.662Z,2.92
2023-03-07T11:12:29.063Z,2.17
2023-03-07T11:14:59.272Z,2.55
2023-03-07T11:17:49.059Z,3.58
2023-03-07T11:20:24.535Z,5.05
2023-03-07T11:23:11.612Z,2.95
2023-03-07T11:25:38.095Z,3.83
2023-03-07T11:28:23.990Z,2.50
2023-03-07T11:30:53.712Z,2.63
2023-03-07T11:33:31.260Z,1.55
2023-03-07T11:36:08.976Z,2.55
2023-03-07T11:38:54.742Z,1.17
2023-03-07T11:41:28.248Z,3.33
2023-03-07T11:44:22.748Z,0.73
2023-03-07T11:47:13.592Z,2.85
2023-03-07T11:49:48.557Z,3.08
2023-03-07T11:52:36.897Z,1.53
2023-03-07T11:55:40.697Z,1.25
2023-03-07T12:02:06.021Z,1.33
2023-03-07T12:05:01.322Z,2.47
2023-03-07T12:07:55.351Z,1.63
2023-03-07T12:10:36.570Z,2.95
2023-03-07T12:13:21.563Z,2.10
2023-03-07T12:16:04.299Z,3.70
2023-03-07T12:18:51.517Z,4.10
2023-03-07T12:21:47.475Z,1.77
2023-03-07T12:24:43.142Z,1.48
2023-03-07T12:27:19.779Z,1.27
2023-03-07T12:30:07.697Z,3.47
2023-03-07T12:32:38.264Z,1.48
2023-03-07T12:35:30.959Z,1.73
2023-03-07T12:41:10.236Z,0.85
2023-03-07T12:43:45.820Z,2.60
2023-03-07T12:46:38.981Z,2.15
2023-03-07T12:49:16.093Z,1.23
2023-03-07T12:52:04.767Z,3.15
2023-03-07T12:54:38.125Z,1.17
2023-03-07T12:57:11.808Z,2.72
2023-03-07T12:59:43.781Z,1.75
2023-03-07T13:02:30.250Z,1.10
2023-03-07T13:04:58.021Z,1.95
2023-03-07T13:07:33.960Z,2.20
2023-03-07T13:10:05.948Z,1.13
2023-03-07T13:12:35.683Z,0.60
2023-03-07T13:15:23.430Z,1.20
2023-03-07T13:17:49.896Z,1.10
2023-03-07T13:20:20.588Z,0.55
2023-03-07T13:23:03.534Z,0.57
2023-03-07T13:25:49.078Z,1.75
2023-03-07T13:28:43.861Z,1.97
2023-03-07T13:31:16.636Z,1.88
2023-03-07T13:33:45.962Z,1.70
2023-03-07T13:36:34.286Z,4.00
2023-03-07T13:39:01.047Z,0.73
2023-03-07T13:41:47.734Z,1.27
2023-03-07T13:44:38.966Z,1.92
2023-03-07T13:47:44.282Z,0.85
2023-03-07T13:50:35.155Z,5.22
2023-03-07T13:53:04.241Z,1.50
2023-03-07T13:55:39.579Z,4.13
2023-03-07T13:58:18.686Z,1.67
2023-03-07T14:00:56.409Z,1.85
2023-03-07T14:03:29.287Z,1.05
2023-03-07T14:05:59.523Z,3.72
2023-03-07T14:08:30.273Z,2.10
2023-03-07T14:10:56.809Z,4.00
2023-03-07T14:13:36.932Z,4.60
2023-03-07T14:16:26.606Z,2.70
2023-03-07T14:19:15.178Z,3.63
2023-03-07T14:21:46.155Z,3.33
2023-03-07T14:24:51.123Z,1.13
2023-03-07T14:27:17.640Z,2.33
2023-03-07T14:29:57.109Z,3.10
2023-03-07T14:32:28.491Z,1.42
2023-03-07T14:34:55.712Z,0.60
2023-03-07T14:37:30.445Z,1.67
2023-03-07T14:40:00.081Z,3.63
2023-03-07T14:42:45.635Z,1.73
2023-03-07T14:45:35.100Z,2.13
2023-03-07T14:48:22.364Z,2.30
2023-03-07T14:50:48.829Z,3.00
2023-03-07T14:53:28.226Z,1.88
2023-03-07T14:55:59.824Z,0.93
2023-03-07T14:58:32.792Z,2.63
2023-03-07T15:01:02.168Z,2.03
2023-03-07T15:03:29.984Z,1.83
2023-03-07T15:05:59.809Z,0.70
2023-03-07T15:08:35.780Z,2.65
2023-03-07T15:11:13.644Z,1.85
2023-03-07T15:13:48.260Z,1.37
2023-03-07T15:16:38.786Z,1.92
2023-03-07T15:19:25.594Z,1.95
2023-03-07T15:21:58.559Z,4.03
2023-03-07T15:24:36.241Z,1.05
2023-03-07T15:27:10.310Z,1.67
2023-03-07T15:29:46.593Z,1.63
2023-03-07T15:32:32.369Z,2.90
2023-03-07T15:35:33.791Z,0.85
2023-03-07T15:38:31.046Z,2.97
2023-03-07T15:41:04.092Z,4.00
2023-03-07T15:43:46.985Z,1.63
2023-03-07T15:46:21.528Z,1.17
2023-03-07T15:48:56.363Z,4.65
2023-03-07T15:51:24.992Z,1.00
2023-03-07T15:54:02.952Z,1.13
2023-03-07T15:56:40.946Z,0.82
2023-03-07T15:59:32.311Z,1.23
2023-03-07T16:02:45.052Z,1.90
2023-03-07T16:05:22.832Z,2.83
2023-03-07T16:07:55.629Z,1.53
2023-03-07T16:10:33.880Z,1.23
2023-03-07T16:13:11.798Z,4.90
2023-03-07T16:15:43.135Z,1.90
2023-03-07T16:18:18.497Z,2.08
2023-03-07T16:20:45.058Z,3.53
2023-03-07T16:23:14.427Z,0.90
2023-03-07T16:25:45.806Z,2.00
2023-03-07T16:28:14.907Z,1.10
2023-03-07T16:30:45.460Z,0.90
2023-03-07T16:33:14.625Z,1.00
2023-03-07T16:35:43.698Z,2.55
2023-03-07T16:38:11.863Z,2.75
2023-03-07T16:40:44.332Z,2.90
2023-03-07T16:43:36.968Z,1.00
2023-03-07T16:46:07.072Z,2.97
2023-03-07T16:48:33.602Z,2.47
2023-03-07T16:51:01.441Z,1.50
2023-03-07T16:53:28.873Z,2.13
2023-03-07T16:55:58.685Z,3.13
2023-03-07T16:58:35.499Z,2.47
2023-03-07T17:01:03.224Z,1.33
2023-03-07T17:03:30.631Z,1.65
2023-03-07T17:05:58.277Z,2.40
2023-03-07T17:08:24.983Z,1.75
2023-03-07T17:10:51.747Z,3.40
2023-03-07T17:13:18.871Z,3.33
2023-03-07T17:15:47.095Z,3.42
2023-03-07T17:18:21.281Z,2.13
2023-03-07T17:20:47.982Z,0.90
2023-03-07T17:23:15.807Z,4.23
2023-03-07T17:25:43.293Z,1.10
2023-03-07T17:28:14.992Z,1.20
2023-03-07T17:30:45.389Z,7.53
2023-03-07T17:33:17.478Z,5.00
2023-03-07T17:35:43.998Z,5.87
2023-03-07T17:38:10.490Z,2.55
2023-03-07T17:40:41.419Z,3.03
2023-03-07T17:43:07.938Z,2.03
2023-03-07T17:45:34.416Z,0.75
2023-03-07T17:48:00.890Z,2.43
2023-03-07T17:50:27.338Z,1.50
2023-03-07T17:52:55.098Z,2.67
2023-03-07T17:55:24.970Z,2.03
2023-03-07T17:57:52.513Z,3.20
2023-03-07T18:00:20.968Z,1.63
2023-03-07T18:02:48.191Z,2.55
2023-03-07T18:05:14.820Z,2.30
2023-03-07T18:07:42.765Z,2.33
2023-03-07T18:10:11.743Z,1.92
2023-03-07T18:12:39.401Z,2.63
2023-03-07T18:15:24.402Z,3.38
2023-03-07T18:17:50.902Z,3.20
2023-03-07T18:20:22.394Z,2.83
2023-03-07T18:22:49.239Z,4.05
2023-03-07T18:25:18.856Z,2.53
2023-03-07T18:27:46.105Z,3.47
2023-03-07T18:30:14.961Z,4.57
2023-03-07T18:32:44.543Z,3.25
2023-03-07T18:35:12.036Z,2.60
2023-03-07T18:37:38.892Z,3.40
2023-03-07T18:40:09.179Z,2.55
2023-03-07T18:42:35.698Z,3.33
2023-03-07T18:45:02.176Z,2.53
2023-03-07T18:47:28.715Z,6.88
2023-03-07T18:49:57.642Z,2.23
2023-03-07T18:52:24.112Z,3.22
2023-03-07T18:54:50.598Z,2.35
2023-03-07T18:57:17.079Z,2.92
2023-03-07T18:59:43.512Z,5.53
2023-03-07T19:02:10.362Z,2.80
2023-03-07T19:04:36.917Z,2.53
2023-03-07T19:07:04.122Z,2.00
2023-03-07T19:09:31.657Z,1.80
2023-03-07T19:11:58.201Z,2.25
2023-03-07T19:14:24.820Z,1.77
2023-03-07T19:16:51.247Z,5.47
2023-03-07T19:19:17.695Z,3.45
2023-03-07T19:21:44.278Z,2.42
2023-03-07T19:24:11.889Z,3.05
2023-03-07T19:26:38.440Z,2.60
2023-03-07T19:29:05.311Z,2.42
2023-03-07T19:31:32.515Z,2.58
2023-03-07T19:33:59.354Z,2.22
2023-03-07T19:36:28.248Z,2.60
2023-03-07T19:38:57.110Z,2.50
2023-03-07T19:41:26.483Z,2.13
2023-03-07T19:43:53.262Z,2.85
2023-03-07T19:46:21.399Z,2.33
2023-03-07T19:48:48.270Z,4.35
2023-03-07T19:51:17.155Z,3.77
2023-03-07T19:53:45.232Z,8.10
2023-03-07T19:56:16.785Z,3.30
2023-03-07T19:58:43.219Z,3.85
2023-03-07T20:01:11.208Z,4.95
2023-03-07T20:03:38.563Z,7.50
2023-03-07T20:06:06.219Z,4.00
2023-03-07T20:08:33.640Z,6.35
2023-03-07T20:11:14.736Z,5.05
2023-03-07T20:13:42.790Z,3.88
2023-03-07T20:16:10.570Z,3.30
2023-03-07T20:18:38.345Z,4.32
2023-03-07T20:21:13.309Z,5.20
2023-03-07T20:23:40.062Z,3.53
2023-03-07T20:26:09.452Z,5.22
2023-03-07T20:28:37.131Z,3.23
2023-03-07T20:31:10.517Z,3.08
2023-03-07T20:33:39.106Z,2.63
2023-03-07T20:36:09.219Z,3.35
2023-03-07T20:38:37.403Z,3.60
2023-03-07T20:41:06.344Z,3.30
2023-03-07T20:43:33.598Z,4.40
2023-03-07T20:46:12.209Z,2.08
2023-03-07T20:48:39.949Z,3.78
2023-03-07T20:51:21.261Z,3.33
2023-03-07T20:53:52.501Z,2.93
2023-03-07T20:56:22.296Z,3.63
2023-03-07T20:58:49.463Z,3.75
2023-03-07T21:01:17.904Z,6.22
2023-03-07T21:03:44.679Z,4.07
2023-03-07T21:06:11.729Z,3.23
2023-03-07T21:08:38.638Z,3.65
2023-03-07T21:11:10.927Z,3.00
2023-03-07T21:13:39.866Z,3.78
2023-03-07T21:16:10.011Z,5.20
2023-03-07T21:18:37.174Z,3.00
2023-03-07T21:21:09.235Z,2.92
2023-03-07T21:23:36.041Z,3.90
2023-03-07T21:26:05.846Z,3.33
2023-03-07T21:28:33.794Z,3.05
2023-03-07T21:31:08.700Z,4.13
2023-03-07T21:33:35.844Z,4.28
2023-03-07T21:36:03.715Z,4.65
2023-03-07T21:38:30.884Z,4.03
2023-03-07T21:40:57.448Z,4.78
2023-03-07T21:43:24.123Z,3.20
2023-03-07T21:45:50.957Z,2.05
2023-03-07T21:48:19.313Z,4.85
2023-03-07T21:50:48.475Z,4.70
2023-03-07T21:53:15.072Z,3.05
2023-03-07T21:55:57.924Z,2.40
2023-03-07T21:58:24.936Z,2.30
2023-03-07T22:00:52.341Z,5.00
2023-03-07T22:03:20.839Z,3.50
2023-03-07T22:05:47.407Z,4.85
2023-03-07T22:08:16.061Z,3.17
2023-03-07T22:10:43.076Z,2.65
2023-03-07T22:13:10.423Z,2.50
2023-03-07T22:15:40.295Z,3.83
2023-03-07T22:18:06.902Z,3.10
2023-03-07T22:20:33.651Z,2.03
2023-03-07T22:23:00.135Z,2.33
2023-03-07T22:25:26.711Z,3.33
2023-03-07T22:27:53.268Z,2.17
2023-03-07T22:30:19.739Z,1.85
2023-03-07T22:32:46.251Z,3.90
2023-03-07T22:35:12.703Z,2.33
2023-03-07T22:37:39.205Z,1.98
2023-03-07T22:40:06.660Z,2.88
2023-03-07T22:42:33.745Z,3.08
2023-03-07T22:45:00.186Z,4.27
2023-03-07T22:47:26.975Z,3.13
2023-03-07T22:49:53.450Z,2.00
2023-03-07T22:52:19.908Z,5.30
2023-03-07T22:54:46.350Z,2.42
2023-03-07T22:57:12.806Z,9.53
2023-03-07T22:59:39.356Z,2.65
2023-03-07T23:02:05.948Z,2.75
2023-03-07T23:04:32.466Z,2.63
2023-03-07T23:06:59.037Z,2.10
2023-03-07T23:09:25.655Z,4.23
2023-03-07T23:11:52.451Z,2.28
2023-03-07T23:14:18.998Z,3.42
2023-03-07T23:16:45.511Z,2.20
2023-03-07T23:19:11.969Z,2.13
2023-03-07T23:21:38.550Z,2.73
2023-03-07T23:24:06.069Z,2.28
2023-03-07T23:26:35.913Z,3.90
2023-03-07T23:29:03.765Z,2.13
2023-03-07T23:31:35.776Z,3.55
2023-03-07T23:34:05.540Z,5.47
2023-03-07T23:36:33.249Z,3.28
2023-03-07T23:39:00.815Z,1.67
2023-03-07T23:41:27.913Z,2.83
2023-03-07T23:44:00.076Z,2.83
2023-03-07T23:46:28.417Z,2.00
2023-03-07T23:48:56.367Z,2.00
2023-03-07T23:51:23.737Z,3.38
2023-03-07T23:53:50.309Z,1.55
2023-03-07T23:56:17.353Z,1.77
2023-03-07T23:58:44.056Z,4.80
